sensor_id;sensor_type;location;lat;lon;timestamp;P1;durP1;ratioP1;P2;durP2;ratioP2
74543;SDS011;63016;55.030;38.710;2023-05-19T00:02:09;11.02;;;7.07;;
74543;SDS011;63016;55.030;38.710;2023-05-19T00:04:35;10.88;;;7.07;;
74543;SDS011;63016;55.030;38.710;2023-05-19T00:07:02;8.98;;;6.47;;
74543;SDS011;63016;55.030;38.710;2023-05-19T00:09:28;14.43;;;7.20;;
74543;SDS011;63016;55.030;38.710;2023-05-19T00:11:54;11.15;;;7.60;;
74543;SDS011;63016;55.030;38.710;2023-05-19T00:14:20;17.05;;;7.78;;
74543;SDS011;63016;55.030;38.710;2023-05-19T00:16:46;11.95;;;6.93;;
74543;SDS011;63016;55.030;38.710;2023-05-19T00:19:12;15.98;;;8.23;;
74543;SDS011;63016;55.030;38.710;2023-05-19T00:21:37;13.13;;;8.10;;
74543;SDS011;63016;55.030;38.710;2023-05-19T00:24:03;15.77;;;7.88;;
74543;SDS011;63016;55.030;38.710;2023-05-19T00:26:29;11.30;;;8.15;;
74543;SDS011;63016;55.030;38.710;2023-05-19T00:28:54;13.30;;;8.05;;
74543;SDS011;63016;55.030;38.710;2023-05-19T00:31:20;12.98;;;8.05;;
74543;SDS011;63016;55.030;38.710;2023-05-19T00:33:46;26.45;;;8.07;;
74543;SDS011;63016;55.030;38.710;2023-05-19T00:36:11;11.63;;;7.90;;
74543;SDS011;63016;55.030;38.710;2023-05-19T00:38:37;15.23;;;8.13;;
74543;SDS011;63016;55.030;38.710;2023-05-19T00:41:03;16.45;;;8.07;;
74543;SDS011;63016;55.030;38.710;2023-05-19T00:43:30;13.65;;;8.52;;
74543;SDS011;63016;55.030;38.710;2023-05-19T00:45:56;13.15;;;8.35;;
74543;SDS011;63016;55.030;38.710;2023-05-19T00:48:21;21.15;;;8.98;;
74543;SDS011;63016;55.030;38.710;2023-05-19T00:50:49;14.38;;;8.15;;
74543;SDS011;63016;55.030;38.710;2023-05-19T00:53:16;11.40;;;7.57;;
74543;SDS011;63016;55.030;38.710;2023-05-19T00:55:42;14.95;;;7.80;;
74543;SDS011;63016;55.030;38.710;2023-05-19T00:58:08;14.48;;;8.32;;
74543;SDS011;63016;55.030;38.710;2023-05-19T01:00:34;14.10;;;8.15;;
74543;SDS011;63016;55.030;38.710;2023-05-19T01:03:01;12.30;;;7.93;;
74543;SDS011;63016;55.030;38.710;2023-05-19T01:05:27;15.68;;;8.07;;
74543;SDS011;63016;55.030;38.710;2023-05-19T01:07:52;18.92;;;8.27;;
74543;SDS011;63016;55.030;38.710;2023-05-19T01:10:20;13.45;;;8.52;;
74543;SDS011;63016;55.030;38.710;2023-05-19T01:12:46;16.65;;;8.88;;
74543;SDS011;63016;55.030;38.710;2023-05-19T01:15:13;12.63;;;8.80;;
74543;SDS011;63016;55.030;38.710;2023-05-19T01:18:04;13.75;;;8.80;;
74543;SDS011;63016;55.030;38.710;2023-05-19T01:20:41;12.30;;;8.48;;
74543;SDS011;63016;55.030;38.710;2023-05-19T01:32:04;11.73;;;8.38;;
74543;SDS011;63016;55.030;38.710;2023-05-19T01:34:32;18.48;;;9.02;;
74543;SDS011;63016;55.030;38.710;2023-05-19T01:37:02;13.45;;;8.80;;
74543;SDS011;63016;55.030;38.710;2023-05-19T01:39:29;15.57;;;8.98;;
74543;SDS011;63016;55.030;38.710;2023-05-19T01:41:56;16.05;;;9.65;;
74543;SDS011;63016;55.030;38.710;2023-05-19T01:44:22;16.73;;;9.45;;
74543;SDS011;63016;55.030;38.710;2023-05-19T01:46:48;15.23;;;9.27;;
74543;SDS011;63016;55.030;38.710;2023-05-19T01:49:14;15.20;;;9.32;;
74543;SDS011;63016;55.030;38.710;2023-05-19T01:51:40;18.20;;;9.52;;
74543;SDS011;63016;55.030;38.710;2023-05-19T01:54:06;14.40;;;9.63;;
74543;SDS011;63016;55.030;38.710;2023-05-19T01:56:44;18.02;;;9.68;;
74543;SDS011;63016;55.030;38.710;2023-05-19T02:05:12;19.10;;;10.15;;
74543;SDS011;63016;55.030;38.710;2023-05-19T02:10:59;16.23;;;9.75;;
74543;SDS011;63016;55.030;38.710;2023-05-19T02:13:33;19.92;;;9.90;;
74543;SDS011;63016;55.030;38.710;2023-05-19T02:16:03;16.85;;;10.57;;
74543;SDS011;63016;55.030;38.710;2023-05-19T02:18:31;16.63;;;10.10;;
74543;SDS011;63016;55.030;38.710;2023-05-19T02:20:57;17.88;;;10.75;;
74543;SDS011;63016;55.030;38.710;2023-05-19T02:23:23;15.55;;;10.95;;
74543;SDS011;63016;55.030;38.710;2023-05-19T02:25:48;18.10;;;11.75;;
74543;SDS011;63016;55.030;38.710;2023-05-19T02:28:14;17.17;;;11.85;;
74543;SDS011;63016;55.030;38.710;2023-05-19T02:30:40;16.33;;;10.52;;
74543;SDS011;63016;55.030;38.710;2023-05-19T02:33:05;15.40;;;11.65;;
74543;SDS011;63016;55.030;38.710;2023-05-19T02:35:31;19.65;;;10.82;;
74543;SDS011;63016;55.030;38.710;2023-05-19T02:37:57;16.13;;;11.30;;
74543;SDS011;63016;55.030;38.710;2023-05-19T02:40:23;21.52;;;11.73;;
74543;SDS011;63016;55.030;38.710;2023-05-19T02:42:48;16.73;;;11.23;;
74543;SDS011;63016;55.030;38.710;2023-05-19T02:45:14;19.98;;;11.45;;
74543;SDS011;63016;55.030;38.710;2023-05-19T02:47:40;18.02;;;11.80;;
74543;SDS011;63016;55.030;38.710;2023-05-19T02:50:06;21.98;;;11.70;;
74543;SDS011;63016;55.030;38.710;2023-05-19T02:52:32;19.45;;;12.32;;
74543;SDS011;63016;55.030;38.710;2023-05-19T02:54:57;20.02;;;11.95;;
74543;SDS011;63016;55.030;38.710;2023-05-19T02:57:23;19.30;;;11.32;;
74543;SDS011;63016;55.030;38.710;2023-05-19T02:59:49;16.60;;;12.48;;
74543;SDS011;63016;55.030;38.710;2023-05-19T03:02:14;17.42;;;11.43;;
74543;SDS011;63016;55.030;38.710;2023-05-19T03:04:40;16.83;;;11.52;;
74543;SDS011;63016;55.030;38.710;2023-05-19T03:07:07;23.95;;;12.40;;
74543;SDS011;63016;55.030;38.710;2023-05-19T03:09:38;17.17;;;10.60;;
74543;SDS011;63016;55.030;38.710;2023-05-19T03:12:04;16.17;;;11.88;;
74543;SDS011;63016;55.030;38.710;2023-05-19T03:14:31;16.73;;;11.05;;
74543;SDS011;63016;55.030;38.710;2023-05-19T03:16:58;19.02;;;11.93;;
74543;SDS011;63016;55.030;38.710;2023-05-19T03:19:24;18.70;;;11.70;;
74543;SDS011;63016;55.030;38.710;2023-05-19T03:21:50;18.20;;;10.98;;
74543;SDS011;63016;55.030;38.710;2023-05-19T03:24:16;17.40;;;12.10;;
74543;SDS011;63016;55.030;38.710;2023-05-19T03:26:42;15.13;;;11.50;;
74543;SDS011;63016;55.030;38.710;2023-05-19T03:29:07;14.30;;;10.52;;
74543;SDS011;63016;55.030;38.710;2023-05-19T03:31:33;18.90;;;10.85;;
74543;SDS011;63016;55.030;38.710;2023-05-19T03:33:58;15.43;;;11.27;;
74543;SDS011;63016;55.030;38.710;2023-05-19T03:36:23;14.55;;;10.90;;
74543;SDS011;63016;55.030;38.710;2023-05-19T03:38:50;19.92;;;11.80;;
74543;SDS011;63016;55.030;38.710;2023-05-19T03:41:15;16.27;;;10.40;;
74543;SDS011;63016;55.030;38.710;2023-05-19T03:43:41;16.60;;;11.10;;
74543;SDS011;63016;55.030;38.710;2023-05-19T03:46:06;17.00;;;10.80;;
74543;SDS011;63016;55.030;38.710;2023-05-19T03:48:32;15.02;;;10.60;;
74543;SDS011;63016;55.030;38.710;2023-05-19T03:50:57;15.65;;;10.48;;
74543;SDS011;63016;55.030;38.710;2023-05-19T03:53:23;14.20;;;10.38;;
74543;SDS011;63016;55.030;38.710;2023-05-19T03:55:48;16.38;;;10.77;;
74543;SDS011;63016;55.030;38.710;2023-05-19T03:58:14;14.38;;;10.55;;
74543;SDS011;63016;55.030;38.710;2023-05-19T04:00:40;16.98;;;11.00;;
74543;SDS011;63016;55.030;38.710;2023-05-19T04:03:06;14.75;;;10.05;;
74543;SDS011;63016;55.030;38.710;2023-05-19T04:05:32;15.73;;;10.55;;
74543;SDS011;63016;55.030;38.710;2023-05-19T04:07:58;18.88;;;10.52;;
74543;SDS011;63016;55.030;38.710;2023-05-19T04:10:23;15.07;;;10.65;;
74543;SDS011;63016;55.030;38.710;2023-05-19T04:12:49;14.48;;;10.90;;
74543;SDS011;63016;55.030;38.710;2023-05-19T04:15:15;14.02;;;10.30;;
74543;SDS011;63016;55.030;38.710;2023-05-19T04:17:40;13.68;;;10.75;;
74543;SDS011;63016;55.030;38.710;2023-05-19T04:20:06;16.65;;;10.68;;
74543;SDS011;63016;55.030;38.710;2023-05-19T04:22:50;14.40;;;9.93;;
74543;SDS011;63016;55.030;38.710;2023-05-19T04:25:16;14.80;;;9.80;;
74543;SDS011;63016;55.030;38.710;2023-05-19T04:27:44;14.55;;;9.48;;
74543;SDS011;63016;55.030;38.710;2023-05-19T04:30:09;13.30;;;9.80;;
74543;SDS011;63016;55.030;38.710;2023-05-19T04:32:36;15.63;;;10.10;;
74543;SDS011;63016;55.030;38.710;2023-05-19T04:35:01;14.15;;;10.10;;
74543;SDS011;63016;55.030;38.710;2023-05-19T04:37:28;15.48;;;10.75;;
74543;SDS011;63016;55.030;38.710;2023-05-19T04:39:55;17.35;;;9.80;;
74543;SDS011;63016;55.030;38.710;2023-05-19T04:42:21;13.15;;;9.48;;
74543;SDS011;63016;55.030;38.710;2023-05-19T04:44:50;14.60;;;9.40;;
74543;SDS011;63016;55.030;38.710;2023-05-19T04:47:15;18.88;;;9.93;;
74543;SDS011;63016;55.030;38.710;2023-05-19T04:49:42;15.00;;;9.00;;
74543;SDS011;63016;55.030;38.710;2023-05-19T04:52:08;11.35;;;9.27;;
74543;SDS011;63016;55.030;38.710;2023-05-19T04:54:36;15.45;;;9.38;;
74543;SDS011;63016;55.030;38.710;2023-05-19T04:57:02;13.00;;;8.70;;
74543;SDS011;63016;55.030;38.710;2023-05-19T04:59:28;11.02;;;8.48;;
74543;SDS011;63016;55.030;38.710;2023-05-19T05:01:53;14.52;;;8.32;;
74543;SDS011;63016;55.030;38.710;2023-05-19T05:04:20;13.35;;;7.32;;
74543;SDS011;63016;55.030;38.710;2023-05-19T05:06:46;9.60;;;7.20;;
74543;SDS011;63016;55.030;38.710;2023-05-19T05:09:16;10.25;;;6.40;;
74543;SDS011;63016;55.030;38.710;2023-05-19T05:11:42;11.48;;;6.78;;
74543;SDS011;63016;55.030;38.710;2023-05-19T05:14:08;11.38;;;5.85;;
74543;SDS011;63016;55.030;38.710;2023-05-19T05:16:34;7.28;;;5.85;;
74543;SDS011;63016;55.030;38.710;2023-05-19T05:19:00;9.88;;;5.07;;
74543;SDS011;63016;55.030;38.710;2023-05-19T05:21:27;7.93;;;5.22;;
74543;SDS011;63016;55.030;38.710;2023-05-19T05:23:53;8.43;;;5.78;;
74543;SDS011;63016;55.030;38.710;2023-05-19T05:26:19;9.20;;;5.32;;
74543;SDS011;63016;55.030;38.710;2023-05-19T05:28:47;7.28;;;5.10;;
74543;SDS011;63016;55.030;38.710;2023-05-19T05:31:13;6.85;;;4.80;;
74543;SDS011;63016;55.030;38.710;2023-05-19T05:33:39;10.65;;;4.95;;
74543;SDS011;63016;55.030;38.710;2023-05-19T05:36:05;9.63;;;4.75;;
74543;SDS011;63016;55.030;38.710;2023-05-19T05:38:31;6.25;;;4.80;;
74543;SDS011;63016;55.030;38.710;2023-05-19T05:40:56;5.90;;;4.32;;
74543;SDS011;63016;55.030;38.710;2023-05-19T05:43:22;7.70;;;4.38;;
74543;SDS011;63016;55.030;38.710;2023-05-19T05:45:48;10.90;;;4.57;;
74543;SDS011;63016;55.030;38.710;2023-05-19T05:48:13;8.93;;;4.90;;
74543;SDS011;63016;55.030;38.710;2023-05-19T05:50:39;8.18;;;4.30;;
74543;SDS011;63016;55.030;38.710;2023-05-19T05:53:07;5.47;;;3.92;;
74543;SDS011;63016;55.030;38.710;2023-05-19T05:55:34;8.15;;;3.67;;
74543;SDS011;63016;55.030;38.710;2023-05-19T05:58:00;7.15;;;3.83;;
74543;SDS011;63016;55.030;38.710;2023-05-19T06:00:26;5.85;;;3.25;;
74543;SDS011;63016;55.030;38.710;2023-05-19T06:02:52;6.47;;;3.67;;
74543;SDS011;63016;55.030;38.710;2023-05-19T06:05:18;5.28;;;3.50;;
74543;SDS011;63016;55.030;38.710;2023-05-19T06:07:43;5.00;;;3.85;;
74543;SDS011;63016;55.030;38.710;2023-05-19T06:10:09;7.50;;;3.80;;
74543;SDS011;63016;55.030;38.710;2023-05-19T06:12:35;5.95;;;3.85;;
74543;SDS011;63016;55.030;38.710;2023-05-19T06:15:05;5.90;;;3.33;;
74543;SDS011;63016;55.030;38.710;2023-05-19T06:17:32;9.13;;;3.63;;
74543;SDS011;63016;55.030;38.710;2023-05-19T06:19:59;4.22;;;3.40;;
74543;SDS011;63016;55.030;38.710;2023-05-19T06:22:25;10.68;;;3.50;;
74543;SDS011;63016;55.030;38.710;2023-05-19T06:24:52;7.60;;;3.45;;
74543;SDS011;63016;55.030;38.710;2023-05-19T06:27:17;9.55;;;3.72;;
74543;SDS011;63016;55.030;38.710;2023-05-19T06:29:43;9.23;;;3.45;;
74543;SDS011;63016;55.030;38.710;2023-05-19T06:32:08;9.32;;;3.83;;
74543;SDS011;63016;55.030;38.710;2023-05-19T06:34:34;6.97;;;3.50;;
74543;SDS011;63016;55.030;38.710;2023-05-19T06:36:59;9.40;;;3.88;;
74543;SDS011;63016;55.030;38.710;2023-05-19T06:39:26;7.57;;;3.92;;
74543;SDS011;63016;55.030;38.710;2023-05-19T06:41:51;9.07;;;4.32;;
74543;SDS011;63016;55.030;38.710;2023-05-19T06:44:17;8.45;;;3.78;;
74543;SDS011;63016;55.030;38.710;2023-05-19T06:46:42;6.43;;;3.95;;
74543;SDS011;63016;55.030;38.710;2023-05-19T06:49:09;7.22;;;3.42;;
74543;SDS011;63016;55.030;38.710;2023-05-19T06:51:34;8.13;;;3.97;;
74543;SDS011;63016;55.030;38.710;2023-05-19T06:54:00;8.75;;;4.45;;
74543;SDS011;63016;55.030;38.710;2023-05-19T06:56:26;10.00;;;4.47;;
74543;SDS011;63016;55.030;38.710;2023-05-19T06:58:51;9.82;;;4.50;;
74543;SDS011;63016;55.030;38.710;2023-05-19T07:01:17;9.10;;;4.20;;
74543;SDS011;63016;55.030;38.710;2023-05-19T07:03:42;11.20;;;4.90;;
74543;SDS011;63016;55.030;38.710;2023-05-19T07:06:08;9.38;;;4.15;;
74543;SDS011;63016;55.030;38.710;2023-05-19T07:08:33;9.13;;;4.15;;
74543;SDS011;63016;55.030;38.710;2023-05-19T07:11:01;11.93;;;4.40;;
74543;SDS011;63016;55.030;38.710;2023-05-19T07:13:26;7.50;;;4.25;;
74543;SDS011;63016;55.030;38.710;2023-05-19T07:15:52;6.95;;;3.50;;
74543;SDS011;63016;55.030;38.710;2023-05-19T07:18:20;7.18;;;3.80;;
74543;SDS011;63016;55.030;38.710;2023-05-19T07:20:46;11.27;;;3.38;;
74543;SDS011;63016;55.030;38.710;2023-05-19T07:23:12;8.15;;;3.80;;
74543;SDS011;63016;55.030;38.710;2023-05-19T07:25:38;8.05;;;3.45;;
74543;SDS011;63016;55.030;38.710;2023-05-19T07:28:03;7.72;;;6.38;;
74543;SDS011;63016;55.030;38.710;2023-05-19T07:30:29;11.52;;;7.53;;
74543;SDS011;63016;55.030;38.710;2023-05-19T07:32:55;21.35;;;8.32;;
74543;SDS011;63016;55.030;38.710;2023-05-19T07:35:20;8.07;;;5.88;;
74543;SDS011;63016;55.030;38.710;2023-05-19T07:37:50;6.35;;;4.07;;
74543;SDS011;63016;55.030;38.710;2023-05-19T07:40:15;4.90;;;3.08;;
74543;SDS011;63016;55.030;38.710;2023-05-19T07:42:41;4.32;;;2.72;;
74543;SDS011;63016;55.030;38.710;2023-05-19T07:45:07;5.78;;;2.85;;
74543;SDS011;63016;55.030;38.710;2023-05-19T07:47:52;5.60;;;2.97;;
74543;SDS011;63016;55.030;38.710;2023-05-19T07:50:17;4.28;;;2.58;;
74543;SDS011;63016;55.030;38.710;2023-05-19T07:52:43;5.22;;;2.45;;
74543;SDS011;63016;55.030;38.710;2023-05-19T07:55:46;6.30;;;2.90;;
74543;SDS011;63016;55.030;38.710;2023-05-19T07:58:12;4.72;;;2.72;;
74543;SDS011;63016;55.030;38.710;2023-05-19T08:00:38;3.10;;;2.78;;
74543;SDS011;63016;55.030;38.710;2023-05-19T08:03:03;5.07;;;2.90;;
74543;SDS011;63016;55.030;38.710;2023-05-19T08:08:13;4.57;;;2.80;;
74543;SDS011;63016;55.030;38.710;2023-05-19T08:10:40;6.70;;;2.83;;
74543;SDS011;63016;55.030;38.710;2023-05-19T08:13:06;5.78;;;2.90;;
74543;SDS011;63016;55.030;38.710;2023-05-19T08:15:31;5.28;;;2.85;;
74543;SDS011;63016;55.030;38.710;2023-05-19T08:17:57;8.05;;;3.40;;
74543;SDS011;63016;55.030;38.710;2023-05-19T08:20:22;5.97;;;3.58;;
74543;SDS011;63016;55.030;38.710;2023-05-19T08:22:48;5.93;;;3.75;;
74543;SDS011;63016;55.030;38.710;2023-05-19T08:25:14;3.97;;;3.35;;
74543;SDS011;63016;55.030;38.710;2023-05-19T08:27:40;5.50;;;3.28;;
74543;SDS011;63016;55.030;38.710;2023-05-19T08:30:05;4.45;;;3.67;;
74543;SDS011;63016;55.030;38.710;2023-05-19T08:32:32;7.88;;;5.25;;
74543;SDS011;63016;55.030;38.710;2023-05-19T08:34:57;7.75;;;4.30;;
74543;SDS011;63016;55.030;38.710;2023-05-19T08:37:23;7.20;;;3.75;;
74543;SDS011;63016;55.030;38.710;2023-05-19T08:39:48;5.03;;;3.50;;
74543;SDS011;63016;55.030;38.710;2023-05-19T08:42:14;5.97;;;3.33;;
74543;SDS011;63016;55.030;38.710;2023-05-19T08:44:39;5.13;;;3.45;;
74543;SDS011;63016;55.030;38.710;2023-05-19T08:47:06;4.95;;;3.45;;
74543;SDS011;63016;55.030;38.710;2023-05-19T08:49:42;5.35;;;3.75;;
74543;SDS011;63016;55.030;38.710;2023-05-19T08:52:18;8.15;;;4.63;;
74543;SDS011;63016;55.030;38.710;2023-05-19T08:54:49;5.47;;;4.72;;
74543;SDS011;63016;55.030;38.710;2023-05-19T08:57:20;6.78;;;5.22;;
74543;SDS011;63016;55.030;38.710;2023-05-19T08:59:49;6.22;;;4.88;;
74543;SDS011;63016;55.030;38.710;2023-05-19T09:02:16;7.50;;;5.13;;
74543;SDS011;63016;55.030;38.710;2023-05-19T09:04:43;7.60;;;5.20;;
74543;SDS011;63016;55.030;38.710;2023-05-19T09:07:14;8.32;;;5.05;;
74543;SDS011;63016;55.030;38.710;2023-05-19T09:09:40;8.80;;;4.75;;
74543;SDS011;63016;55.030;38.710;2023-05-19T09:12:11;6.05;;;4.50;;
74543;SDS011;63016;55.030;38.710;2023-05-19T09:14:38;5.20;;;4.18;;
74543;SDS011;63016;55.030;38.710;2023-05-19T09:17:04;11.20;;;5.00;;
74543;SDS011;63016;55.030;38.710;2023-05-19T09:19:30;7.15;;;4.72;;
74543;SDS011;63016;55.030;38.710;2023-05-19T09:22:02;7.13;;;4.68;;
74543;SDS011;63016;55.030;38.710;2023-05-19T09:24:27;5.25;;;3.85;;
74543;SDS011;63016;55.030;38.710;2023-05-19T09:26:54;7.93;;;4.30;;
74543;SDS011;63016;55.030;38.710;2023-05-19T09:29:23;8.90;;;5.63;;
74543;SDS011;63016;55.030;38.710;2023-05-19T09:31:49;6.07;;;5.47;;
74543;SDS011;63016;55.030;38.710;2023-05-19T09:34:16;7.25;;;5.35;;
74543;SDS011;63016;55.030;38.710;2023-05-19T09:36:42;5.78;;;4.47;;
74543;SDS011;63016;55.030;38.710;2023-05-19T09:39:17;8.65;;;5.07;;
74543;SDS011;63016;55.030;38.710;2023-05-19T09:41:43;6.35;;;4.55;;
74543;SDS011;63016;55.030;38.710;2023-05-19T09:46:51;4.75;;;3.92;;
74543;SDS011;63016;55.030;38.710;2023-05-19T09:49:27;7.72;;;4.90;;
74543;SDS011;63016;55.030;38.710;2023-05-19T09:51:55;5.28;;;3.50;;
74543;SDS011;63016;55.030;38.710;2023-05-19T09:54:21;6.18;;;3.90;;
74543;SDS011;63016;55.030;38.710;2023-05-19T09:56:57;9.10;;;4.45;;
74543;SDS011;63016;55.030;38.710;2023-05-19T09:59:24;6.15;;;4.78;;
74543;SDS011;63016;55.030;38.710;2023-05-19T10:01:56;6.38;;;4.68;;
74543;SDS011;63016;55.030;38.710;2023-05-19T10:04:23;7.50;;;4.80;;
74543;SDS011;63016;55.030;38.710;2023-05-19T10:06:54;5.75;;;4.28;;
74543;SDS011;63016;55.030;38.710;2023-05-19T10:09:23;7.40;;;5.28;;
74543;SDS011;63016;55.030;38.710;2023-05-19T10:11:51;7.03;;;4.22;;
74543;SDS011;63016;55.030;38.710;2023-05-19T10:14:27;9.00;;;5.85;;
74543;SDS011;63016;55.030;38.710;2023-05-19T10:16:54;8.23;;;4.50;;
74543;SDS011;63016;55.030;38.710;2023-05-19T10:19:21;6.97;;;4.88;;
74543;SDS011;63016;55.030;38.710;2023-05-19T10:21:51;5.70;;;4.15;;
74543;SDS011;63016;55.030;38.710;2023-05-19T10:24:17;5.85;;;4.47;;
74543;SDS011;63016;55.030;38.710;2023-05-19T10:27:06;5.18;;;4.10;;
74543;SDS011;63016;55.030;38.710;2023-05-19T10:32:05;7.93;;;4.28;;
74543;SDS011;63016;55.030;38.710;2023-05-19T10:40:20;5.90;;;3.13;;
74543;SDS011;63016;55.030;38.710;2023-05-19T10:45:51;4.88;;;3.92;;
74543;SDS011;63016;55.030;38.710;2023-05-19T10:48:18;7.70;;;3.97;;
74543;SDS011;63016;55.030;38.710;2023-05-19T10:50:45;4.22;;;3.00;;
74543;SDS011;63016;55.030;38.710;2023-05-19T10:53:14;4.43;;;2.92;;
74543;SDS011;63016;55.030;38.710;2023-05-19T10:55:52;6.05;;;3.88;;
74543;SDS011;63016;55.030;38.710;2023-05-19T11:01:12;5.30;;;2.90;;
74543;SDS011;63016;55.030;38.710;2023-05-19T11:03:51;4.05;;;2.92;;
74543;SDS011;63016;55.030;38.710;2023-05-19T11:06:28;6.40;;;3.30;;
74543;SDS011;63016;55.030;38.710;2023-05-19T11:08:58;4.68;;;2.83;;
74543;SDS011;63016;55.030;38.710;2023-05-19T11:11:25;9.10;;;3.63;;
74543;SDS011;63016;55.030;38.710;2023-05-19T11:14:06;7.65;;;4.43;;
74543;SDS011;63016;55.030;38.710;2023-05-19T11:16:35;9.88;;;4.78;;
74543;SDS011;63016;55.030;38.710;2023-05-19T11:19:01;8.70;;;5.22;;
74543;SDS011;63016;55.030;38.710;2023-05-19T11:29:42;4.00;;;2.83;;
74543;SDS011;63016;55.030;38.710;2023-05-19T11:32:08;6.57;;;3.20;;
74543;SDS011;63016;55.030;38.710;2023-05-19T11:34:36;5.50;;;3.33;;
74543;SDS011;63016;55.030;38.710;2023-05-19T11:37:02;4.97;;;3.63;;
74543;SDS011;63016;55.030;38.710;2023-05-19T11:39:29;5.95;;;4.07;;
74543;SDS011;63016;55.030;38.710;2023-05-19T11:41:55;7.47;;;4.38;;
74543;SDS011;63016;55.030;38.710;2023-05-19T11:44:21;5.70;;;4.22;;
74543;SDS011;63016;55.030;38.710;2023-05-19T11:46:46;6.90;;;5.15;;
74543;SDS011;63016;55.030;38.710;2023-05-19T11:49:12;9.02;;;6.75;;
74543;SDS011;63016;55.030;38.710;2023-05-19T11:51:42;6.13;;;5.43;;
74543;SDS011;63016;55.030;38.710;2023-05-19T11:54:08;9.00;;;5.80;;
74543;SDS011;63016;55.030;38.710;2023-05-19T11:56:39;9.65;;;5.43;;
74543;SDS011;63016;55.030;38.710;2023-05-19T11:59:06;12.02;;;5.13;;
74543;SDS011;63016;55.030;38.710;2023-05-19T12:01:32;6.85;;;4.93;;
74543;SDS011;63016;55.030;38.710;2023-05-19T12:03:58;8.40;;;4.70;;
74543;SDS011;63016;55.030;38.710;2023-05-19T12:06:27;6.43;;;4.55;;
74543;SDS011;63016;55.030;38.710;2023-05-19T12:08:53;6.20;;;4.82;;
74543;SDS011;63016;55.030;38.710;2023-05-19T12:11:20;10.93;;;4.97;;
74543;SDS011;63016;55.030;38.710;2023-05-19T12:13:46;8.13;;;4.63;;
74543;SDS011;63016;55.030;38.710;2023-05-19T12:16:14;5.95;;;4.88;;
74543;SDS011;63016;55.030;38.710;2023-05-19T12:18:39;7.15;;;4.53;;
74543;SDS011;63016;55.030;38.710;2023-05-19T12:21:05;12.13;;;4.55;;
74543;SDS011;63016;55.030;38.710;2023-05-19T12:23:31;5.57;;;4.57;;
74543;SDS011;63016;55.030;38.710;2023-05-19T12:25:58;8.43;;;4.47;;
74543;SDS011;63016;55.030;38.710;2023-05-19T12:28:24;9.95;;;5.65;;
74543;SDS011;63016;55.030;38.710;2023-05-19T12:30:50;9.20;;;5.35;;
74543;SDS011;63016;55.030;38.710;2023-05-19T12:33:17;6.22;;;4.75;;
74543;SDS011;63016;55.030;38.710;2023-05-19T12:35:47;13.63;;;5.63;;
74543;SDS011;63016;55.030;38.710;2023-05-19T12:38:14;9.02;;;5.63;;
74543;SDS011;63016;55.030;38.710;2023-05-19T12:40:40;6.55;;;4.82;;
74543;SDS011;63016;55.030;38.710;2023-05-19T12:43:07;6.15;;;4.80;;
74543;SDS011;63016;55.030;38.710;2023-05-19T12:45:34;10.13;;;4.80;;
74543;SDS011;63016;55.030;38.710;2023-05-19T12:48:04;9.70;;;5.90;;
74543;SDS011;63016;55.030;38.710;2023-05-19T12:50:35;8.55;;;6.22;;
74543;SDS011;63016;55.030;38.710;2023-05-19T12:53:02;18.05;;;6.93;;
74543;SDS011;63016;55.030;38.710;2023-05-19T12:55:36;11.65;;;6.63;;
74543;SDS011;63016;55.030;38.710;2023-05-19T12:58:05;9.07;;;6.80;;
74543;SDS011;63016;55.030;38.710;2023-05-19T13:00:31;9.65;;;6.53;;
74543;SDS011;63016;55.030;38.710;2023-05-19T13:05:29;8.45;;;5.88;;
74543;SDS011;63016;55.030;38.710;2023-05-19T13:10:23;9.75;;;6.93;;
74543;SDS011;63016;55.030;38.710;2023-05-19T13:12:52;10.15;;;6.40;;
74543;SDS011;63016;55.030;38.710;2023-05-19T13:15:18;9.82;;;6.57;;
74543;SDS011;63016;55.030;38.710;2023-05-19T13:17:44;9.93;;;6.63;;
74543;SDS011;63016;55.030;38.710;2023-05-19T13:20:11;11.30;;;6.18;;
74543;SDS011;63016;55.030;38.710;2023-05-19T13:22:37;10.95;;;6.05;;
74543;SDS011;63016;55.030;38.710;2023-05-19T13:25:02;9.00;;;5.68;;
74543;SDS011;63016;55.030;38.710;2023-05-19T13:27:28;8.52;;;6.10;;
74543;SDS011;63016;55.030;38.710;2023-05-19T13:29:54;10.38;;;6.40;;
74543;SDS011;63016;55.030;38.710;2023-05-19T13:32:19;9.48;;;6.70;;
74543;SDS011;63016;55.030;38.710;2023-05-19T13:34:45;10.10;;;6.03;;
74543;SDS011;63016;55.030;38.710;2023-05-19T13:37:10;13.00;;;6.90;;
74543;SDS011;63016;55.030;38.710;2023-05-19T13:39:36;6.75;;;5.35;;
74543;SDS011;63016;55.030;38.710;2023-05-19T13:42:03;8.95;;;5.60;;
74543;SDS011;63016;55.030;38.710;2023-05-19T13:44:29;6.75;;;4.82;;
74543;SDS011;63016;55.030;38.710;2023-05-19T13:46:54;7.82;;;5.47;;
74543;SDS011;63016;55.030;38.710;2023-05-19T13:49:20;7.03;;;5.10;;
74543;SDS011;63016;55.030;38.710;2023-05-19T13:51:45;7.88;;;5.32;;
74543;SDS011;63016;55.030;38.710;2023-05-19T13:54:11;7.53;;;4.30;;
74543;SDS011;63016;55.030;38.710;2023-05-19T13:56:37;8.40;;;5.32;;
74543;SDS011;63016;55.030;38.710;2023-05-19T13:59:03;10.32;;;4.80;;
74543;SDS011;63016;55.030;38.710;2023-05-19T14:01:29;10.93;;;5.25;;
74543;SDS011;63016;55.030;38.710;2023-05-19T14:03:54;8.18;;;4.78;;
74543;SDS011;63016;55.030;38.710;2023-05-19T14:06:20;11.15;;;5.30;;
74543;SDS011;63016;55.030;38.710;2023-05-19T14:08:45;12.05;;;5.30;;
74543;SDS011;63016;55.030;38.710;2023-05-19T14:11:17;10.52;;;5.50;;
74543;SDS011;63016;55.030;38.710;2023-05-19T14:13:48;7.90;;;4.47;;
74543;SDS011;63016;55.030;38.710;2023-05-19T14:16:14;8.43;;;4.90;;
74543;SDS011;63016;55.030;38.710;2023-05-19T14:18:40;9.75;;;5.00;;
74543;SDS011;63016;55.030;38.710;2023-05-19T14:21:06;8.23;;;4.72;;
74543;SDS011;63016;55.030;38.710;2023-05-19T14:23:32;8.13;;;3.45;;
74543;SDS011;63016;55.030;38.710;2023-05-19T14:25:58;8.20;;;3.78;;
74543;SDS011;63016;55.030;38.710;2023-05-19T14:28:24;7.00;;;3.50;;
74543;SDS011;63016;55.030;38.710;2023-05-19T14:30:50;16.02;;;4.70;;
74543;SDS011;63016;55.030;38.710;2023-05-19T14:33:16;8.40;;;4.53;;
74543;SDS011;63016;55.030;38.710;2023-05-19T14:35:43;11.13;;;4.38;;
74543;SDS011;63016;55.030;38.710;2023-05-19T14:38:08;8.18;;;4.47;;
74543;SDS011;63016;55.030;38.710;2023-05-19T14:40:37;7.18;;;4.47;;
74543;SDS011;63016;55.030;38.710;2023-05-19T14:43:05;7.07;;;3.40;;
74543;SDS011;63016;55.030;38.710;2023-05-19T14:45:31;6.50;;;3.15;;
74543;SDS011;63016;55.030;38.710;2023-05-19T14:47:57;6.22;;;2.55;;
74543;SDS011;63016;55.030;38.710;2023-05-19T14:50:23;6.20;;;3.20;;
74543;SDS011;63016;55.030;38.710;2023-05-19T14:52:48;5.85;;;2.45;;
74543;SDS011;63016;55.030;38.710;2023-05-19T14:55:14;5.63;;;2.80;;
74543;SDS011;63016;55.030;38.710;2023-05-19T14:57:39;6.82;;;2.85;;
74543;SDS011;63016;55.030;38.710;2023-05-19T15:00:05;4.68;;;2.28;;
74543;SDS011;63016;55.030;38.710;2023-05-19T15:02:33;5.70;;;3.08;;
74543;SDS011;63016;55.030;38.710;2023-05-19T15:04:58;4.82;;;2.80;;
74543;SDS011;63016;55.030;38.710;2023-05-19T15:07:25;6.78;;;2.53;;
74543;SDS011;63016;55.030;38.710;2023-05-19T15:09:51;6.43;;;2.60;;
74543;SDS011;63016;55.030;38.710;2023-05-19T15:12:17;6.53;;;2.72;;
74543;SDS011;63016;55.030;38.710;2023-05-19T15:14:43;7.90;;;5.45;;
74543;SDS011;63016;55.030;38.710;2023-05-19T15:17:08;7.88;;;3.50;;